Terminal Aerodrome Forecast
Issued by NWS Sterling, VA

Home | Current Version | Previous Version | Text Only | Print | Product List | Glossary On
Versions: 1 2 3 4 5 6 7 8 9 10 11 12 13
000
FTUS41 KLWX 300500
TAFCHO
TAF
KCHO 300532Z 3006/3106 00000KT P6SM OVC035
     FM300800 00000KT 5SM BR BKN035
     FM300900 00000KT 3SM BR BKN035
     FM301200 00000KT 3SM BR SCT025
     FM301400 00000KT P6SM SCT050
     FM301900 16006KT P6SM SCT090
     FM310300 VRB03KT 5SM BR BKN250=

USA.gov is the U.S. government's official web portal to all federal, state and local government web resources and services.